sensor_id;sensor_type;location;lat;lon;timestamp;pressure;altitude;pressure_sealevel;temperature;humidity
61436;BME280;47304;47.456;19.160;2023-02-17T00:00:31;101203.02;;;0.52;73.30
61436;BME280;47304;47.456;19.160;2023-02-17T00:02:57;101202.00;;;0.49;73.09
61436;BME280;47304;47.456;19.160;2023-02-17T00:05:26;101199.52;;;0.48;73.12
61436;BME280;47304;47.456;19.160;2023-02-17T00:07:53;101203.70;;;0.45;73.18
61436;BME280;47304;47.456;19.160;2023-02-17T00:10:19;101199.77;;;0.43;73.27
61436;BME280;47304;47.456;19.160;2023-02-17T00:12:46;101197.11;;;0.41;73.27
61436;BME280;47304;47.456;19.160;2023-02-17T00:15:12;101196.23;;;0.41;73.13
61436;BME280;47304;47.456;19.160;2023-02-17T00:17:39;101192.78;;;0.41;73.10
61436;BME280;47304;47.456;19.160;2023-02-17T00:20:06;101195.41;;;0.42;73.16
61436;BME280;47304;47.456;19.160;2023-02-17T00:22:32;101188.55;;;0.43;73.17
61436;BME280;47304;47.456;19.160;2023-02-17T00:24:59;101191.42;;;0.42;73.43
61436;BME280;47304;47.456;19.160;2023-02-17T00:27:25;101191.85;;;0.40;73.76
61436;BME280;47304;47.456;19.160;2023-02-17T00:29:52;101188.52;;;0.39;73.68
61436;BME280;47304;47.456;19.160;2023-02-17T00:32:18;101191.09;;;0.39;74.09
61436;BME280;47304;47.456;19.160;2023-02-17T00:34:45;101189.00;;;0.38;74.02
61436;BME280;47304;47.456;19.160;2023-02-17T00:37:11;101185.61;;;0.39;73.78
61436;BME280;47304;47.456;19.160;2023-02-17T00:39:38;101182.49;;;0.42;73.64
61436;BME280;47304;47.456;19.160;2023-02-17T00:42:05;101186.05;;;0.44;73.63
61436;BME280;47304;47.456;19.160;2023-02-17T00:44:31;101172.32;;;0.45;73.44
61436;BME280;47304;47.456;19.160;2023-02-17T00:46:58;101175.63;;;0.46;73.49
61436;BME280;47304;47.456;19.160;2023-02-17T00:49:25;101175.70;;;0.47;73.39
61436;BME280;47304;47.456;19.160;2023-02-17T00:51:52;101182.39;;;0.47;73.37
61436;BME280;47304;47.456;19.160;2023-02-17T00:54:19;101188.69;;;0.49;73.56
61436;BME280;47304;47.456;19.160;2023-02-17T00:56:46;101189.94;;;0.49;73.79
61436;BME280;47304;47.456;19.160;2023-02-17T00:59:13;101189.48;;;0.51;73.68
61436;BME280;47304;47.456;19.160;2023-02-17T01:01:39;101187.09;;;0.54;73.58
61436;BME280;47304;47.456;19.160;2023-02-17T01:04:06;101183.29;;;0.57;73.47
61436;BME280;47304;47.456;19.160;2023-02-17T01:06:36;101182.46;;;0.61;73.40
61436;BME280;47304;47.456;19.160;2023-02-17T01:09:05;101184.44;;;0.66;73.70
61436;BME280;47304;47.456;19.160;2023-02-17T01:11:33;101179.76;;;0.72;74.36
61436;BME280;47304;47.456;19.160;2023-02-17T01:14:01;101180.08;;;0.79;74.44
61436;BME280;47304;47.456;19.160;2023-02-17T01:16:30;101179.35;;;0.85;74.20
61436;BME280;47304;47.456;19.160;2023-02-17T01:18:57;101178.31;;;0.88;74.02
61436;BME280;47304;47.456;19.160;2023-02-17T01:21:25;101178.85;;;0.92;73.88
61436;BME280;47304;47.456;19.160;2023-02-17T01:23:55;101180.87;;;0.94;73.93
61436;BME280;47304;47.456;19.160;2023-02-17T01:26:24;101178.73;;;0.96;73.81
61436;BME280;47304;47.456;19.160;2023-02-17T01:28:52;101177.08;;;0.98;73.67
61436;BME280;47304;47.456;19.160;2023-02-17T01:31:20;101174.05;;;0.99;73.45
61436;BME280;47304;47.456;19.160;2023-02-17T01:33:48;101171.47;;;0.99;73.90
61436;BME280;47304;47.456;19.160;2023-02-17T01:36:16;101164.58;;;0.99;73.88
61436;BME280;47304;47.456;19.160;2023-02-17T01:38:43;101157.48;;;0.99;73.83
61436;BME280;47304;47.456;19.160;2023-02-17T01:41:10;101159.28;;;1.00;74.39
61436;BME280;47304;47.456;19.160;2023-02-17T01:43:36;101159.41;;;1.03;74.36
61436;BME280;47304;47.456;19.160;2023-02-17T01:46:05;101155.97;;;1.06;74.43
61436;BME280;47304;47.456;19.160;2023-02-17T01:48:41;101154.98;;;1.11;74.31
61436;BME280;47304;47.456;19.160;2023-02-17T01:51:20;101155.30;;;1.14;74.19
61436;BME280;47304;47.456;19.160;2023-02-17T01:53:49;101159.29;;;1.17;74.07
61436;BME280;47304;47.456;19.160;2023-02-17T01:56:18;101159.65;;;1.21;73.80
61436;BME280;47304;47.456;19.160;2023-02-17T01:58:52;101158.30;;;1.22;73.56
61436;BME280;47304;47.456;19.160;2023-02-17T02:01:20;101151.25;;;1.22;73.26
61436;BME280;47304;47.456;19.160;2023-02-17T02:03:47;101147.60;;;1.22;73.26
61436;BME280;47304;47.456;19.160;2023-02-17T02:06:18;101146.23;;;1.22;73.12
61436;BME280;47304;47.456;19.160;2023-02-17T02:09:12;101146.34;;;1.21;73.25
61436;BME280;47304;47.456;19.160;2023-02-17T02:11:40;101150.52;;;1.18;72.95
61436;BME280;47304;47.456;19.160;2023-02-17T02:14:08;101144.66;;;1.15;72.84
61436;BME280;47304;47.456;19.160;2023-02-17T02:17:05;101148.95;;;1.11;72.79
61436;BME280;47304;47.456;19.160;2023-02-17T02:28:09;101130.43;;;0.93;72.54
61436;BME280;47304;47.456;19.160;2023-02-17T02:33:22;101128.13;;;0.85;73.07
61436;BME280;47304;47.456;19.160;2023-02-17T02:35:58;101121.85;;;0.80;73.04
61436;BME280;47304;47.456;19.160;2023-02-17T02:38:34;101121.32;;;0.76;73.09
61436;BME280;47304;47.456;19.160;2023-02-17T02:41:38;101110.95;;;0.72;72.95
61436;BME280;47304;47.456;19.160;2023-02-17T02:44:26;101107.99;;;0.72;72.82
61436;BME280;47304;47.456;19.160;2023-02-17T02:47:04;101109.09;;;0.70;73.10
61436;BME280;47304;47.456;19.160;2023-02-17T02:49:32;101111.65;;;0.66;73.53
61436;BME280;47304;47.456;19.160;2023-02-17T02:54:59;101123.85;;;0.61;74.01
61436;BME280;47304;47.456;19.160;2023-02-17T03:08:08;101128.88;;;0.49;73.48
61436;BME280;47304;47.456;19.160;2023-02-17T03:10:44;101127.96;;;0.44;73.56
61436;BME280;47304;47.456;19.160;2023-02-17T03:13:11;101122.25;;;0.41;73.66
61436;BME280;47304;47.456;19.160;2023-02-17T03:15:37;101120.89;;;0.38;73.71
61436;BME280;47304;47.456;19.160;2023-02-17T03:18:04;101118.02;;;0.36;73.82
61436;BME280;47304;47.456;19.160;2023-02-17T03:20:36;101124.64;;;0.34;73.82
61436;BME280;47304;47.456;19.160;2023-02-17T03:23:05;101126.05;;;0.31;73.62
61436;BME280;47304;47.456;19.160;2023-02-17T03:25:32;101130.75;;;0.26;73.87
61436;BME280;47304;47.456;19.160;2023-02-17T03:27:59;101136.52;;;0.21;74.03
61436;BME280;47304;47.456;19.160;2023-02-17T03:30:25;101136.75;;;0.18;74.20
61436;BME280;47304;47.456;19.160;2023-02-17T03:32:53;101141.41;;;0.16;74.41
61436;BME280;47304;47.456;19.160;2023-02-17T03:35:19;101134.64;;;0.11;74.38
61436;BME280;47304;47.456;19.160;2023-02-17T03:37:46;101135.63;;;0.08;74.81
61436;BME280;47304;47.456;19.160;2023-02-17T03:40:12;101132.11;;;0.06;75.05
61436;BME280;47304;47.456;19.160;2023-02-17T03:42:39;101130.67;;;0.05;74.88
61436;BME280;47304;47.456;19.160;2023-02-17T03:45:06;101133.79;;;0.05;74.66
61436;BME280;47304;47.456;19.160;2023-02-17T03:47:32;101137.15;;;0.07;74.73
61436;BME280;47304;47.456;19.160;2023-02-17T03:49:59;101144.63;;;0.08;74.67
61436;BME280;47304;47.456;19.160;2023-02-17T03:52:25;101143.42;;;0.08;74.50
61436;BME280;47304;47.456;19.160;2023-02-17T03:54:52;101152.14;;;0.07;74.34
61436;BME280;47304;47.456;19.160;2023-02-17T03:57:18;101148.43;;;0.05;74.41
61436;BME280;47304;47.456;19.160;2023-02-17T03:59:45;101145.12;;;0.04;74.32
61436;BME280;47304;47.456;19.160;2023-02-17T04:02:12;101145.46;;;0.04;74.38
61436;BME280;47304;47.456;19.160;2023-02-17T04:04:38;101145.02;;;0.03;74.39
61436;BME280;47304;47.456;19.160;2023-02-17T04:07:05;101136.89;;;0.02;74.26
61436;BME280;47304;47.456;19.160;2023-02-17T04:09:31;101132.89;;;0.01;74.17
61436;BME280;47304;47.456;19.160;2023-02-17T04:11:58;101137.17;;;0.01;74.25
61436;BME280;47304;47.456;19.160;2023-02-17T04:14:24;101132.67;;;0.00;74.22
61436;BME280;47304;47.456;19.160;2023-02-17T04:16:51;101125.77;;;-0.00;74.18
61436;BME280;47304;47.456;19.160;2023-02-17T04:19:17;101127.81;;;-0.01;74.29
61436;BME280;47304;47.456;19.160;2023-02-17T04:21:46;101140.86;;;-0.02;74.24
61436;BME280;47304;47.456;19.160;2023-02-17T04:24:13;101140.95;;;-0.03;74.29
61436;BME280;47304;47.456;19.160;2023-02-17T04:26:39;101140.73;;;-0.04;74.15
61436;BME280;47304;47.456;19.160;2023-02-17T04:29:06;101136.73;;;-0.04;73.99
61436;BME280;47304;47.456;19.160;2023-02-17T04:31:32;101137.86;;;-0.06;74.05
61436;BME280;47304;47.456;19.160;2023-02-17T04:33:59;101132.99;;;-0.06;74.04
61436;BME280;47304;47.456;19.160;2023-02-17T04:36:25;101141.00;;;-0.08;74.17
61436;BME280;47304;47.456;19.160;2023-02-17T04:38:52;101140.31;;;-0.11;74.52
61436;BME280;47304;47.456;19.160;2023-02-17T04:41:19;101136.21;;;-0.13;74.45
61436;BME280;47304;47.456;19.160;2023-02-17T04:43:45;101133.09;;;-0.14;74.88
61436;BME280;47304;47.456;19.160;2023-02-17T04:46:12;101130.21;;;-0.13;74.98
61436;BME280;47304;47.456;19.160;2023-02-17T04:48:39;101120.43;;;-0.16;74.81
61436;BME280;47304;47.456;19.160;2023-02-17T04:51:05;101125.38;;;-0.17;75.10
61436;BME280;47304;47.456;19.160;2023-02-17T04:53:32;101122.70;;;-0.15;75.08
61436;BME280;47304;47.456;19.160;2023-02-17T04:55:58;101121.35;;;-0.15;75.78
61436;BME280;47304;47.456;19.160;2023-02-17T04:58:25;101119.17;;;-0.13;76.28
61436;BME280;47304;47.456;19.160;2023-02-17T05:00:51;101121.22;;;-0.11;76.34
61436;BME280;47304;47.456;19.160;2023-02-17T05:03:18;101118.98;;;-0.08;76.15
61436;BME280;47304;47.456;19.160;2023-02-17T05:05:44;101124.11;;;-0.05;76.03
61436;BME280;47304;47.456;19.160;2023-02-17T05:08:11;101124.05;;;-0.03;76.01
61436;BME280;47304;47.456;19.160;2023-02-17T05:10:38;101126.35;;;-0.02;76.18
61436;BME280;47304;47.456;19.160;2023-02-17T05:13:04;101126.66;;;0.01;76.24
61436;BME280;47304;47.456;19.160;2023-02-17T05:15:31;101127.70;;;0.04;76.13
61436;BME280;47304;47.456;19.160;2023-02-17T05:18:00;101125.33;;;0.08;76.13
61436;BME280;47304;47.456;19.160;2023-02-17T05:20:27;101126.96;;;0.13;76.16
61436;BME280;47304;47.456;19.160;2023-02-17T05:22:53;101121.55;;;0.18;75.89
61436;BME280;47304;47.456;19.160;2023-02-17T05:25:20;101123.02;;;0.23;75.83
61436;BME280;47304;47.456;19.160;2023-02-17T05:27:46;101124.29;;;0.27;75.87
61436;BME280;47304;47.456;19.160;2023-02-17T05:30:13;101123.60;;;0.34;75.88
61436;BME280;47304;47.456;19.160;2023-02-17T05:32:40;101130.20;;;0.38;75.73
61436;BME280;47304;47.456;19.160;2023-02-17T05:35:07;101131.48;;;0.42;75.80
61436;BME280;47304;47.456;19.160;2023-02-17T05:37:33;101134.26;;;0.46;75.95
61436;BME280;47304;47.456;19.160;2023-02-17T05:40:00;101135.70;;;0.51;76.06
61436;BME280;47304;47.456;19.160;2023-02-17T05:42:26;101139.42;;;0.56;76.00
61436;BME280;47304;47.456;19.160;2023-02-17T05:44:54;101135.66;;;0.60;75.92
61436;BME280;47304;47.456;19.160;2023-02-17T05:47:21;101135.52;;;0.64;75.92
61436;BME280;47304;47.456;19.160;2023-02-17T05:49:48;101135.88;;;0.68;75.77
61436;BME280;47304;47.456;19.160;2023-02-17T05:52:15;101140.52;;;0.70;75.84
61436;BME280;47304;47.456;19.160;2023-02-17T05:54:41;101134.02;;;0.75;75.77
61436;BME280;47304;47.456;19.160;2023-02-17T05:57:08;101136.17;;;0.80;75.79
61436;BME280;47304;47.456;19.160;2023-02-17T05:59:35;101135.04;;;0.85;75.75
61436;BME280;47304;47.456;19.160;2023-02-17T06:02:01;101134.55;;;0.89;75.83
61436;BME280;47304;47.456;19.160;2023-02-17T06:04:28;101133.58;;;0.94;75.96
61436;BME280;47304;47.456;19.160;2023-02-17T06:06:54;101131.70;;;0.98;75.76
61436;BME280;47304;47.456;19.160;2023-02-17T06:09:21;101138.94;;;1.04;75.85
61436;BME280;47304;47.456;19.160;2023-02-17T06:11:47;101139.99;;;1.12;75.83
61436;BME280;47304;47.456;19.160;2023-02-17T06:14:14;101138.29;;;1.19;75.73
61436;BME280;47304;47.456;19.160;2023-02-17T06:16:40;101136.06;;;1.26;75.62
61436;BME280;47304;47.456;19.160;2023-02-17T06:19:07;101136.08;;;1.34;75.57
61436;BME280;47304;47.456;19.160;2023-02-17T06:21:33;101138.63;;;1.40;75.47
61436;BME280;47304;47.456;19.160;2023-02-17T06:24:00;101143.52;;;1.48;75.47
61436;BME280;47304;47.456;19.160;2023-02-17T06:26:27;101138.99;;;1.54;75.30
61436;BME280;47304;47.456;19.160;2023-02-17T06:28:53;101136.45;;;1.59;75.23
61436;BME280;47304;47.456;19.160;2023-02-17T06:31:20;101143.32;;;1.65;75.29
61436;BME280;47304;47.456;19.160;2023-02-17T06:33:47;101151.23;;;1.72;75.17
61436;BME280;47304;47.456;19.160;2023-02-17T06:36:14;101158.08;;;1.78;75.20
61436;BME280;47304;47.456;19.160;2023-02-17T06:38:41;101156.63;;;1.84;75.23
61436;BME280;47304;47.456;19.160;2023-02-17T06:41:08;101158.73;;;1.92;75.22
61436;BME280;47304;47.456;19.160;2023-02-17T06:43:34;101154.91;;;1.99;75.02
61436;BME280;47304;47.456;19.160;2023-02-17T06:46:01;101145.53;;;2.05;74.97
61436;BME280;47304;47.456;19.160;2023-02-17T06:48:27;101152.63;;;2.13;74.88
61436;BME280;47304;47.456;19.160;2023-02-17T06:50:54;101147.92;;;2.20;74.72
61436;BME280;47304;47.456;19.160;2023-02-17T06:53:20;101140.69;;;2.24;74.56
61436;BME280;47304;47.456;19.160;2023-02-17T06:55:47;101143.97;;;2.28;74.77
61436;BME280;47304;47.456;19.160;2023-02-17T06:58:13;101144.64;;;2.35;74.87
61436;BME280;47304;47.456;19.160;2023-02-17T07:00:40;101148.31;;;2.44;74.70
61436;BME280;47304;47.456;19.160;2023-02-17T07:03:07;101153.41;;;2.54;74.67
61436;BME280;47304;47.456;19.160;2023-02-17T07:05:35;101148.19;;;2.64;74.44
61436;BME280;47304;47.456;19.160;2023-02-17T07:08:03;101149.39;;;2.76;74.45
61436;BME280;47304;47.456;19.160;2023-02-17T07:10:30;101148.14;;;2.87;74.38
61436;BME280;47304;47.456;19.160;2023-02-17T07:12:57;101147.66;;;3.00;74.18
61436;BME280;47304;47.456;19.160;2023-02-17T07:15:23;101141.45;;;3.13;74.24
61436;BME280;47304;47.456;19.160;2023-02-17T07:17:50;101147.88;;;3.26;74.03
61436;BME280;47304;47.456;19.160;2023-02-17T07:20:16;101147.55;;;3.39;73.92
61436;BME280;47304;47.456;19.160;2023-02-17T07:22:43;101142.69;;;3.52;73.66
61436;BME280;47304;47.456;19.160;2023-02-17T07:25:09;101148.68;;;3.63;73.60
61436;BME280;47304;47.456;19.160;2023-02-17T07:27:37;101148.70;;;3.72;73.52
61436;BME280;47304;47.456;19.160;2023-02-17T07:30:04;101147.79;;;3.80;73.49
61436;BME280;47304;47.456;19.160;2023-02-17T07:32:31;101147.39;;;3.87;73.33
61436;BME280;47304;47.456;19.160;2023-02-17T07:34:57;101146.95;;;3.94;73.13
61436;BME280;47304;47.456;19.160;2023-02-17T07:37:24;101140.12;;;4.01;72.85
61436;BME280;47304;47.456;19.160;2023-02-17T07:39:50;101138.36;;;4.10;72.73
61436;BME280;47304;47.456;19.160;2023-02-17T07:42:17;101134.48;;;4.17;72.80
61436;BME280;47304;47.456;19.160;2023-02-17T07:44:43;101134.95;;;4.25;72.09
61436;BME280;47304;47.456;19.160;2023-02-17T07:47:10;101132.61;;;4.32;71.63
61436;BME280;47304;47.456;19.160;2023-02-17T07:49:36;101130.55;;;4.37;70.99
61436;BME280;47304;47.456;19.160;2023-02-17T07:52:04;101132.34;;;4.44;70.58
61436;BME280;47304;47.456;19.160;2023-02-17T07:54:31;101127.23;;;4.51;70.21
61436;BME280;47304;47.456;19.160;2023-02-17T07:56:57;101126.82;;;4.59;69.97
61436;BME280;47304;47.456;19.160;2023-02-17T07:59:24;101125.85;;;4.66;69.45
61436;BME280;47304;47.456;19.160;2023-02-17T08:01:50;101122.54;;;4.76;69.40
61436;BME280;47304;47.456;19.160;2023-02-17T08:04:17;101114.71;;;4.90;69.21
61436;BME280;47304;47.456;19.160;2023-02-17T08:06:43;101116.52;;;5.07;68.94
61436;BME280;47304;47.456;19.160;2023-02-17T08:09:10;101111.53;;;5.25;68.29
61436;BME280;47304;47.456;19.160;2023-02-17T08:11:38;101108.48;;;5.38;67.56
61436;BME280;47304;47.456;19.160;2023-02-17T08:14:05;101110.81;;;5.51;67.12
61436;BME280;47304;47.456;19.160;2023-02-17T08:16:31;101119.29;;;5.66;66.95
61436;BME280;47304;47.456;19.160;2023-02-17T08:18:58;101122.08;;;5.83;66.14
61436;BME280;47304;47.456;19.160;2023-02-17T08:21:26;101123.17;;;6.02;65.58
61436;BME280;47304;47.456;19.160;2023-02-17T08:23:53;101124.29;;;6.21;65.25
61436;BME280;47304;47.456;19.160;2023-02-17T08:26:20;101125.59;;;6.42;64.85
61436;BME280;47304;47.456;19.160;2023-02-17T08:28:47;101123.66;;;6.60;64.55
61436;BME280;47304;47.456;19.160;2023-02-17T08:31:19;101125.98;;;6.88;63.93
61436;BME280;47304;47.456;19.160;2023-02-17T08:33:47;101133.28;;;7.21;63.22
61436;BME280;47304;47.456;19.160;2023-02-17T08:36:14;101133.98;;;7.56;62.50
61436;BME280;47304;47.456;19.160;2023-02-17T08:38:41;101143.77;;;7.88;61.48
61436;BME280;47304;47.456;19.160;2023-02-17T08:41:14;101141.42;;;8.15;60.60
61436;BME280;47304;47.456;19.160;2023-02-17T08:43:41;101141.02;;;8.54;59.77
61436;BME280;47304;47.456;19.160;2023-02-17T08:46:10;101139.30;;;9.20;59.44
61436;BME280;47304;47.456;19.160;2023-02-17T08:48:37;101134.83;;;10.46;58.28
61436;BME280;47304;47.456;19.160;2023-02-17T08:51:04;101131.42;;;11.79;53.77
61436;BME280;47304;47.456;19.160;2023-02-17T08:53:30;101126.02;;;11.88;52.43
61436;BME280;47304;47.456;19.160;2023-02-17T08:55:57;101124.05;;;11.82;50.74
61436;BME280;47304;47.456;19.160;2023-02-17T08:58:24;101118.89;;;11.49;50.23
61436;BME280;47304;47.456;19.160;2023-02-17T09:00:51;101114.14;;;11.06;51.16
61436;BME280;47304;47.456;19.160;2023-02-17T09:03:27;101116.45;;;10.73;51.54
61436;BME280;47304;47.456;19.160;2023-02-17T09:05:56;101122.05;;;10.57;51.38
61436;BME280;47304;47.456;19.160;2023-02-17T09:08:23;101119.60;;;10.30;51.53
61436;BME280;47304;47.456;19.160;2023-02-17T09:10:50;101128.33;;;10.15;51.60
61436;BME280;47304;47.456;19.160;2023-02-17T09:13:18;101127.91;;;10.09;51.98
61436;BME280;47304;47.456;19.160;2023-02-17T09:15:44;101129.73;;;9.90;52.42
61436;BME280;47304;47.456;19.160;2023-02-17T09:18:11;101128.27;;;9.85;52.80
61436;BME280;47304;47.456;19.160;2023-02-17T09:20:37;101129.20;;;10.01;53.03
61436;BME280;47304;47.456;19.160;2023-02-17T09:23:05;101131.79;;;10.51;52.13
61436;BME280;47304;47.456;19.160;2023-02-17T09:25:32;101119.73;;;11.22;50.96
61436;BME280;47304;47.456;19.160;2023-02-17T09:27:58;101118.89;;;11.47;50.17
61436;BME280;47304;47.456;19.160;2023-02-17T09:30:25;101110.45;;;11.98;49.69
61436;BME280;47304;47.456;19.160;2023-02-17T09:32:52;101115.75;;;13.01;48.08
61436;BME280;47304;47.456;19.160;2023-02-17T09:35:18;101109.27;;;13.69;46.31
61436;BME280;47304;47.456;19.160;2023-02-17T09:37:45;101104.21;;;14.16;45.26
61436;BME280;47304;47.456;19.160;2023-02-17T09:40:23;101096.20;;;16.49;43.14
61436;BME280;47304;47.456;19.160;2023-02-17T09:42:53;101087.67;;;19.79;39.18
61436;BME280;47304;47.456;19.160;2023-02-17T09:45:30;101084.60;;;21.90;34.74
61436;BME280;47304;47.456;19.160;2023-02-17T09:48:04;101090.34;;;21.15;33.59
61436;BME280;47304;47.456;19.160;2023-02-17T09:50:53;101098.21;;;19.94;33.47
61436;BME280;47304;47.456;19.160;2023-02-17T09:56:09;101104.02;;;17.28;36.16
61436;BME280;47304;47.456;19.160;2023-02-17T09:59:01;101103.45;;;16.71;37.06
61436;BME280;47304;47.456;19.160;2023-02-17T10:01:32;101101.02;;;16.42;37.59
61436;BME280;47304;47.456;19.160;2023-02-17T10:04:13;101105.02;;;16.03;38.08
61436;BME280;47304;47.456;19.160;2023-02-17T10:06:46;101105.95;;;15.22;39.48
61436;BME280;47304;47.456;19.160;2023-02-17T10:09:18;101100.67;;;14.64;40.27
61436;BME280;47304;47.456;19.160;2023-02-17T10:12:02;101094.73;;;14.08;41.25
61436;BME280;47304;47.456;19.160;2023-02-17T10:20:35;101092.80;;;12.54;43.60
61436;BME280;47304;47.456;19.160;2023-02-17T10:23:19;101080.29;;;12.02;44.30
61436;BME280;47304;47.456;19.160;2023-02-17T10:31:10;101062.23;;;11.26;45.71
61436;BME280;47304;47.456;19.160;2023-02-17T10:33:46;101051.94;;;11.10;46.10
61436;BME280;47304;47.456;19.160;2023-02-17T10:36:26;101052.25;;;11.06;46.56
61436;BME280;47304;47.456;19.160;2023-02-17T10:41:26;101049.28;;;11.05;46.82
61436;BME280;47304;47.456;19.160;2023-02-17T10:43:58;101048.89;;;11.02;47.17
61436;BME280;47304;47.456;19.160;2023-02-17T10:46:28;101048.15;;;10.98;46.19
61436;BME280;47304;47.456;19.160;2023-02-17T10:48:57;101048.86;;;10.98;46.22
61436;BME280;47304;47.456;19.160;2023-02-17T10:51:27;101043.89;;;10.89;46.26
61436;BME280;47304;47.456;19.160;2023-02-17T10:53:59;101044.73;;;10.86;46.09
61436;BME280;47304;47.456;19.160;2023-02-17T10:59:34;101042.21;;;10.80;46.44
61436;BME280;47304;47.456;19.160;2023-02-17T11:01:57;101041.50;;;10.79;46.75
61436;BME280;47304;47.456;19.160;2023-02-17T11:04:25;101040.92;;;10.73;46.84
61436;BME280;47304;47.456;19.160;2023-02-17T11:06:53;101031.25;;;10.69;46.75
61436;BME280;47304;47.456;19.160;2023-02-17T11:09:25;101031.54;;;10.62;47.13
61436;BME280;47304;47.456;19.160;2023-02-17T11:14:27;101024.02;;;10.47;47.50
61436;BME280;47304;47.456;19.160;2023-02-17T11:16:59;101020.05;;;10.38;47.75
61436;BME280;47304;47.456;19.160;2023-02-17T11:19:29;101016.11;;;10.31;48.04
61436;BME280;47304;47.456;19.160;2023-02-17T11:21:58;101010.96;;;10.25;48.03
61436;BME280;47304;47.456;19.160;2023-02-17T11:24:25;101009.74;;;10.25;48.38
61436;BME280;47304;47.456;19.160;2023-02-17T11:26:58;101012.61;;;10.31;48.31
61436;BME280;47304;47.456;19.160;2023-02-17T11:29:26;101008.06;;;10.32;47.86
61436;BME280;47304;47.456;19.160;2023-02-17T11:32:05;101009.56;;;10.25;47.69
61436;BME280;47304;47.456;19.160;2023-02-17T11:34:37;101005.29;;;10.18;48.14
61436;BME280;47304;47.456;19.160;2023-02-17T11:37:18;101005.48;;;10.19;48.30
61436;BME280;47304;47.456;19.160;2023-02-17T11:39:50;101001.29;;;10.20;48.27
61436;BME280;47304;47.456;19.160;2023-02-17T11:42:25;100997.78;;;10.21;48.07
61436;BME280;47304;47.456;19.160;2023-02-17T11:44:54;100991.49;;;10.22;48.05
61436;BME280;47304;47.456;19.160;2023-02-17T11:47:41;100985.92;;;10.24;48.27
61436;BME280;47304;47.456;19.160;2023-02-17T11:50:38;100984.59;;;10.31;48.38
61436;BME280;47304;47.456;19.160;2023-02-17T11:53:25;100980.63;;;10.53;48.23
61436;BME280;47304;47.456;19.160;2023-02-17T12:01:53;100967.86;;;10.75;47.91
61436;BME280;47304;47.456;19.160;2023-02-17T12:04:27;100968.35;;;10.69;48.25
61436;BME280;47304;47.456;19.160;2023-02-17T12:15:28;100955.13;;;10.61;49.82
61436;BME280;47304;47.456;19.160;2023-02-17T12:21:01;100946.80;;;10.49;50.87
61436;BME280;47304;47.456;19.160;2023-02-17T12:26:46;100939.69;;;10.40;51.75
61436;BME280;47304;47.456;19.160;2023-02-17T12:34:41;100923.52;;;10.36;52.65
61436;BME280;47304;47.456;19.160;2023-02-17T12:37:17;100914.31;;;10.41;52.76
61436;BME280;47304;47.456;19.160;2023-02-17T12:40:01;100914.55;;;10.47;52.83
61436;BME280;47304;47.456;19.160;2023-02-17T12:42:33;100924.19;;;10.49;52.87
61436;BME280;47304;47.456;19.160;2023-02-17T12:45:19;100923.70;;;10.52;53.08
61436;BME280;47304;47.456;19.160;2023-02-17T12:47:54;100915.30;;;10.54;53.27
61436;BME280;47304;47.456;19.160;2023-02-17T12:50:35;100920.45;;;10.59;53.27
61436;BME280;47304;47.456;19.160;2023-02-17T12:53:10;100921.20;;;10.69;53.42
61436;BME280;47304;47.456;19.160;2023-02-17T12:55:44;100924.27;;;10.80;53.44
61436;BME280;47304;47.456;19.160;2023-02-17T12:58:18;100915.75;;;10.91;53.23
61436;BME280;47304;47.456;19.160;2023-02-17T13:00:51;100910.55;;;10.99;53.21
61436;BME280;47304;47.456;19.160;2023-02-17T13:03:19;100909.69;;;11.01;53.31
61436;BME280;47304;47.456;19.160;2023-02-17T13:05:50;100911.47;;;11.04;53.23
61436;BME280;47304;47.456;19.160;2023-02-17T13:08:30;100913.59;;;11.06;53.24
61436;BME280;47304;47.456;19.160;2023-02-17T13:11:04;100914.98;;;11.05;53.42
61436;BME280;47304;47.456;19.160;2023-02-17T13:13:33;100917.07;;;11.03;53.45
61436;BME280;47304;47.456;19.160;2023-02-17T13:16:12;100914.77;;;11.01;53.43
61436;BME280;47304;47.456;19.160;2023-02-17T13:18:41;100913.37;;;11.00;53.50
61436;BME280;47304;47.456;19.160;2023-02-17T13:24:12;100902.80;;;10.93;53.96
61436;BME280;47304;47.456;19.160;2023-02-17T13:26:43;100912.60;;;10.90;53.86
61436;BME280;47304;47.456;19.160;2023-02-17T13:31:54;100918.36;;;10.87;54.11
61436;BME280;47304;47.456;19.160;2023-02-17T13:34:36;100912.55;;;10.83;54.41
61436;BME280;47304;47.456;19.160;2023-02-17T13:39:42;100918.80;;;10.74;55.36
61436;BME280;47304;47.456;19.160;2023-02-17T13:45:09;100912.96;;;10.68;55.73
61436;BME280;47304;47.456;19.160;2023-02-17T13:47:37;100912.42;;;10.65;55.73
61436;BME280;47304;47.456;19.160;2023-02-17T13:50:05;100911.17;;;10.62;55.79
61436;BME280;47304;47.456;19.160;2023-02-17T13:52:32;100902.56;;;10.60;55.95
61436;BME280;47304;47.456;19.160;2023-02-17T13:55:04;100894.67;;;10.60;55.63
61436;BME280;47304;47.456;19.160;2023-02-17T13:57:34;100891.20;;;10.63;55.72
61436;BME280;47304;47.456;19.160;2023-02-17T14:02:37;100878.48;;;10.73;55.36
61436;BME280;47304;47.456;19.160;2023-02-17T14:05:25;100872.21;;;10.79;55.11
61436;BME280;47304;47.456;19.160;2023-02-17T14:07:57;100862.10;;;10.87;55.28
61436;BME280;47304;47.456;19.160;2023-02-17T14:10:25;100867.20;;;10.91;54.98
61436;BME280;47304;47.456;19.160;2023-02-17T14:12:53;100866.16;;;10.92;54.87
61436;BME280;47304;47.456;19.160;2023-02-17T14:15:24;100861.77;;;10.92;54.54
61436;BME280;47304;47.456;19.160;2023-02-17T14:17:51;100862.48;;;10.91;54.61
61436;BME280;47304;47.456;19.160;2023-02-17T14:25:33;100860.90;;;10.89;54.31
61436;BME280;47304;47.456;19.160;2023-02-17T14:28:00;100858.59;;;10.87;54.33